Time;durP1;ratioP1;P1;durP2;ratioP2;P2;SDS_P1;SDS_P2;PMS_P1;PMS_P2;Temp;Humidity;BMP_temperature;BMP_pressure;BME280_temperature;BME280_humidity;BME280_pressure;Samples;Min_cycle;Max_cycle;Signal;HPM_P1;HPM_P2
2023/03/10 00:00:22;;;;;;;;;4.00;1.00;;;;;13.65;100.00;98788.84;5078765;27;45460;-79
2023/03/10 00:02:48;;;;;;;;;2.33;1.00;;;;;13.60;100.00;98786.34;5076825;27;59742;-77
2023/03/10 00:05:15;;;;;;;;;5.00;1.00;;;;;13.59;100.00;98808.47;5077579;27;45514;-78
2023/03/10 00:07:42;;;;;;;;;5.00;1.00;;;;;13.57;100.00;98788.22;5085558;27;46579;-76
2023/03/10 00:10:10;;;;;;;;;2.33;1.33;;;;;13.57;100.00;98789.09;5083691;27;45389;-76
2023/03/10 00:12:35;;;;;;;;;4.00;1.00;;;;;13.56;100.00;98762.63;5065941;27;45321;-77
2023/03/10 00:15:00;;;;;;;;;4.00;2.00;;;;;13.56;100.00;98771.44;5062890;28;52016;-78
2023/03/10 00:17:26;;;;;;;;;4.00;1.00;;;;;13.56;100.00;98758.19;5073465;27;65595;-78
2023/03/10 00:19:52;;;;;;;;;2.67;1.00;;;;;13.56;100.00;98763.50;5065355;27;45497;-77
2023/03/10 00:22:17;;;;;;;;;9.00;1.67;;;;;13.56;100.00;98752.88;5075909;27;58978;-79
2023/03/10 00:24:42;;;;;;;;;9.67;1.00;;;;;13.59;100.00;98762.53;5077285;27;50852;-78
2023/03/10 00:27:08;;;;;;;;;0.33;0.33;;;;;13.61;100.00;98752.72;5173992;22;70196;-77
2023/03/10 00:29:33;;;;;;;;;3.00;1.00;;;;;13.59;100.00;98734.25;5074569;27;64973;-77
2023/03/10 00:31:58;;;;;;;;;2.67;1.00;;;;;13.62;100.00;98742.06;5076680;27;61874;-78
2023/03/10 00:34:24;;;;;;;;;3.33;1.00;;;;;13.63;100.00;98740.28;5074604;27;60926;-77
2023/03/10 00:36:49;;;;;;;;;2.33;2.33;;;;;13.62;100.00;98736.75;5076410;28;46540;-77
2023/03/10 00:39:14;;;;;;;;;6.00;1.67;;;;;13.62;100.00;98728.81;5067613;28;45387;-78
2023/03/10 00:41:40;;;;;;;;;4.67;1.67;;;;;13.63;100.00;98725.25;5041424;28;45339;-78
2023/03/10 00:44:08;;;;;;;;;6.67;1.00;;;;;13.63;100.00;98727.91;5050143;28;57318;-77
2023/03/10 00:46:35;;;;;;;;;8.67;1.67;;;;;13.58;100.00;98711.31;5042450;28;46720;-77
2023/03/10 00:49:00;;;;;;;;;7.33;2.00;;;;;13.65;100.00;98727.00;5046145;27;46179;-77
2023/03/10 00:51:26;;;;;;;;;0.33;0.33;;;;;13.66;100.00;98734.00;5092125;27;45303;-77
2023/03/10 00:53:51;;;;;;;;;3.00;2.00;;;;;13.63;100.00;98741.16;5088083;27;61106;-78
2023/03/10 00:56:19;;;;;;;;;1.33;1.00;;;;;13.62;100.00;98717.34;5060836;28;47026;-77
2023/03/10 00:58:46;;;;;;;;;8.33;1.00;;;;;13.62;100.00;98727.94;5057516;28;45461;-77
2023/03/10 01:01:17;;;;;;;;;4.67;1.00;;;;;13.54;100.00;98741.47;5083179;27;45445;-77
2023/03/10 01:03:43;;;;;;;;;2.00;1.00;;;;;13.51;100.00;98741.56;5065289;28;46027;-77
2023/03/10 01:06:08;;;;;;;;;3.33;0.33;;;;;13.44;100.00;98734.75;5065111;27;46849;-78
2023/03/10 01:08:34;;;;;;;;;1.67;1.00;;;;;13.38;100.00;98734.97;5054396;28;45377;-79
2023/03/10 01:10:59;;;;;;;;;4.67;1.00;;;;;13.31;100.00;98730.78;5068710;27;66049;-79
2023/03/10 01:13:24;;;;;;;;;6.33;0.00;;;;;13.22;100.00;98729.31;5073918;27;58395;-78
2023/03/10 01:15:50;;;;;;;;;4.00;1.00;;;;;13.13;100.00;98731.38;5074068;27;64637;-77
2023/03/10 01:18:17;;;;;;;;;3.00;1.00;;;;;13.03;100.00;98730.81;5057674;28;52957;-77
2023/03/10 01:20:43;;;;;;;;;2.00;1.00;;;;;12.99;100.00;98735.31;5055328;28;45478;-79
2023/03/10 01:23:14;;;;;;;;;2.00;0.00;;;;;12.93;100.00;98724.94;5076205;27;45548;-79
2023/03/10 01:25:39;;;;;;;;;1.33;0.00;;;;;12.85;100.00;98711.09;5073435;27;46346;-77
2023/03/10 01:28:05;;;;;;;;;2.67;0.67;;;;;12.77;100.00;98729.84;5057133;28;45315;-78
2023/03/10 01:30:30;;;;;;;;;1.00;0.00;;;;;12.69;100.00;98715.13;5073624;28;61896;-77
2023/03/10 01:32:55;;;;;;;;;2.00;1.00;;;;;12.63;100.00;98710.91;5075176;27;60659;-78
2023/03/10 01:35:21;;;;;;;;;0.00;0.00;;;;;12.58;100.00;98719.00;5075373;27;70977;-76
2023/03/10 01:37:46;;;;;;;;;0.00;0.00;;;;;12.52;100.00;98716.53;5056888;28;67263;-78
2023/03/10 01:40:15;;;;;;;;;4.00;0.00;;;;;12.50;100.00;98697.16;5075646;27;54109;-77
2023/03/10 01:42:41;;;;;;;;;0.33;0.33;;;;;12.48;100.00;98703.44;5086162;27;45583;-78
2023/03/10 01:45:09;;;;;;;;;0.33;0.00;;;;;12.44;100.00;98705.31;5058802;28;45747;-77
2023/03/10 01:47:35;;;;;;;;;1.00;0.00;;;;;12.40;100.00;98702.78;5067023;27;45399;-77
2023/03/10 01:50:02;;;;;;;;;0.67;0.00;;;;;12.37;100.00;98694.97;5061245;28;45378;-77
2023/03/10 01:52:30;;;;;;;;;2.00;1.00;;;;;12.38;100.00;98694.03;5061748;28;45358;-78
2023/03/10 01:55:01;;;;;;;;;3.00;0.00;;;;;12.38;100.00;98694.91;5064441;28;71174;-78
2023/03/10 01:57:32;;;;;;;;;3.33;0.00;;;;;12.40;100.00;98684.25;5061791;28;45284;-77
2023/03/10 01:59:58;;;;;;;;;0.00;0.00;;;;;12.40;100.00;98711.59;5079362;27;45320;-76
2023/03/10 02:02:23;;;;;;;;;1.67;1.00;;;;;12.42;100.00;98677.16;5051206;28;45380;-78
2023/03/10 02:04:50;;;;;;;;;2.33;1.00;;;;;12.43;100.00;98682.41;5077056;27;48493;-77
2023/03/10 02:07:18;;;;;;;;;5.33;1.33;;;;;12.47;100.00;98680.53;5060699;28;61295;-77
2023/03/10 02:09:46;;;;;;;;;4.33;2.00;;;;;12.51;100.00;98663.63;5077327;28;45280;-77
2023/03/10 02:12:12;;;;;;;;;4.67;0.67;;;;;12.50;100.00;98662.75;5043098;28;45662;-77
2023/03/10 02:14:38;;;;;;;;;0.67;0.67;;;;;12.54;100.00;98663.53;5070160;27;46545;-76
2023/03/10 02:17:04;;;;;;;;;2.33;0.00;;;;;12.55;100.00;98655.53;5060556;27;45709;-78
2023/03/10 02:19:52;;;;;;;;;3.33;2.00;;;;;12.54;100.00;98652.94;5071693;27;45403;-80
2023/03/10 02:22:17;;;;;;;;;2.00;0.00;;;;;12.58;100.00;98651.94;5070356;27;46439;-78
2023/03/10 02:24:48;;;;;;;;;1.00;0.00;;;;;12.62;100.00;98648.25;5078178;27;65616;-77
2023/03/10 02:27:15;;;;;;;;;3.67;1.00;;;;;12.63;100.00;98649.16;5060609;28;45343;-78
2023/03/10 02:29:45;;;;;;;;;1.00;1.00;;;;;12.65;100.00;98650.81;5079076;28;45394;-78
2023/03/10 02:32:12;;;;;;;;;4.00;0.00;;;;;12.66;100.00;98655.19;5058800;27;45460;-77
2023/03/10 02:34:38;;;;;;;;;3.00;1.00;;;;;12.66;100.00;98657.84;5060120;28;45833;-78
2023/03/10 02:37:03;;;;;;;;;1.00;0.67;;;;;12.68;100.00;98649.88;5059778;27;71306;-78
2023/03/10 02:39:28;;;;;;;;;1.00;1.00;;;;;12.69;100.00;98636.56;5079179;27;45790;-77
2023/03/10 02:41:54;;;;;;;;;3.67;1.67;;;;;12.71;100.00;98634.72;5049209;28;45617;-78
2023/03/10 02:44:20;;;;;;;;;2.00;0.00;;;;;12.73;100.00;98642.59;5076236;27;69099;-77
2023/03/10 02:46:46;;;;;;;;;0.00;0.00;;;;;12.75;100.00;98630.19;5081135;27;45240;-78
2023/03/10 02:49:12;;;;;;;;;8.33;1.67;;;;;12.76;100.00;98643.38;5081269;27;45330;-77
2023/03/10 02:51:43;;;;;;;;;2.00;0.33;;;;;12.76;100.00;98619.56;5061020;28;45605;-78
2023/03/10 02:54:11;;;;;;;;;2.00;0.00;;;;;12.78;100.00;98616.84;5062580;27;46062;-77
2023/03/10 02:56:37;;;;;;;;;4.00;0.33;;;;;12.79;100.00;98610.66;5065317;28;45353;-78
2023/03/10 02:59:04;;;;;;;;;2.33;0.33;;;;;12.78;100.00;98615.09;5060357;27;45519;-76
2023/03/10 03:01:30;;;;;;;;;2.00;1.00;;;;;12.77;100.00;98607.19;5078461;28;45474;-78
2023/03/10 03:03:56;;;;;;;;;0.00;0.00;;;;;12.75;100.00;98615.19;5086486;27;45846;-77
2023/03/10 03:06:22;;;;;;;;;3.00;0.00;;;;;12.74;100.00;98618.75;5066984;27;45422;-77
2023/03/10 03:08:47;;;;;;;;;1.00;1.00;;;;;12.73;100.00;98618.78;5066682;28;45493;-77
2023/03/10 03:11:13;;;;;;;;;0.00;0.00;;;;;12.74;100.00;98625.84;5059826;28;45569;-77
2023/03/10 03:13:38;;;;;;;;;0.33;0.00;;;;;12.72;100.00;98617.06;5060042;28;46958;-78
2023/03/10 03:16:08;;;;;;;;;0.00;0.00;;;;;12.74;100.00;98613.47;5076671;27;68362;-78
2023/03/10 03:18:34;;;;;;;;;0.00;0.00;;;;;12.75;100.00;98609.03;5050794;28;45388;-77
2023/03/10 03:21:07;;;;;;;;;2.67;0.33;;;;;12.77;100.00;98599.22;5059540;27;45341;-78
2023/03/10 03:23:33;;;;;;;;;0.67;0.00;;;;;12.80;100.00;98604.44;5078056;27;45725;-78
2023/03/10 03:25:59;;;;;;;;;1.00;0.00;;;;;12.78;100.00;98601.84;5078185;27;46341;-78
2023/03/10 03:28:24;;;;;;;;;1.33;0.00;;;;;12.75;100.00;98601.06;5082544;27;50897;-79
2023/03/10 03:30:49;;;;;;;;;1.00;0.00;;;;;12.72;100.00;98606.47;5077446;27;45300;-78
2023/03/10 03:33:15;;;;;;;;;2.67;0.00;;;;;12.74;100.00;98612.59;5076974;27;69027;-78
2023/03/10 03:35:42;;;;;;;;;1.00;0.00;;;;;12.72;100.00;98609.09;5082520;27;45335;-78
2023/03/10 03:38:07;;;;;;;;;0.00;0.00;;;;;12.72;100.00;98623.22;5078154;28;45493;-78
2023/03/10 03:40:35;;;;;;;;;0.00;0.00;;;;;12.72;100.00;98611.75;5080859;27;45310;-78
2023/03/10 03:43:00;;;;;;;;;1.00;0.00;;;;;12.69;100.00;98617.16;5077156;28;45748;-77
2023/03/10 03:45:27;;;;;;;;;2.67;0.00;;;;;12.65;100.00;98612.88;5077517;28;45348;-77
2023/03/10 03:47:52;;;;;;;;;1.00;0.00;;;;;12.63;100.00;98626.19;5059404;28;45493;-76
2023/03/10 03:50:19;;;;;;;;;3.33;0.00;;;;;12.62;100.00;98639.44;5059936;28;45522;-77
2023/03/10 03:52:45;;;;;;;;;0.33;0.33;;;;;12.57;100.00;98634.34;5059079;27;46399;-77
2023/03/10 03:55:12;;;;;;;;;3.00;1.00;;;;;12.52;100.00;98634.47;5059790;28;45537;-79
2023/03/10 03:57:37;;;;;;;;;3.67;0.00;;;;;12.49;100.00;98629.25;5057986;27;45383;-77
2023/03/10 04:00:08;;;;;;;;;3.00;0.00;;;;;12.50;100.00;98638.06;5035132;28;54450;-79
2023/03/10 04:02:34;;;;;;;;;1.67;1.00;;;;;12.51;100.00;98634.50;5059864;28;45387;-78
2023/03/10 04:05:00;;;;;;;;;1.67;1.00;;;;;12.52;100.00;98623.88;5056330;28;45779;-78
2023/03/10 04:07:25;;;;;;;;;3.00;1.00;;;;;12.53;100.00;98636.19;5059645;28;45492;-77
2023/03/10 04:09:50;;;;;;;;;2.00;0.33;;;;;12.54;100.00;98623.81;5073738;27;65616;-78
2023/03/10 04:12:16;;;;;;;;;3.00;0.00;;;;;12.55;100.00;98630.84;5075561;28;45715;-78
2023/03/10 04:14:41;;;;;;;;;0.00;0.00;;;;;12.53;100.00;98624.75;5074287;27;65140;-77
2023/03/10 04:17:07;;;;;;;;;3.00;0.00;;;;;12.51;100.00;98621.25;5069987;27;45304;-78
2023/03/10 04:19:32;;;;;;;;;3.00;0.00;;;;;12.51;100.00;98635.38;5058759;28;60851;-79
2023/03/10 04:21:57;;;;;;;;;1.67;0.00;;;;;12.50;100.00;98624.84;5072493;27;49119;-77
2023/03/10 04:24:23;;;;;;;;;1.33;0.00;;;;;12.51;100.00;98630.06;5076739;27;70501;-78
2023/03/10 04:26:48;;;;;;;;;0.00;0.00;;;;;12.50;100.00;98620.41;5077169;27;45822;-79
2023/03/10 04:29:13;;;;;;;;;3.33;1.00;;;;;12.54;100.00;98623.81;5072251;27;58693;-77
2023/03/10 04:31:39;;;;;;;;;2.00;1.00;;;;;12.54;100.00;98616.75;5076573;27;59419;-77
2023/03/10 04:34:04;;;;;;;;;2.00;1.00;;;;;12.55;100.00;98617.63;5075723;27;65558;-79
2023/03/10 04:36:30;;;;;;;;;2.67;0.00;;;;;12.52;100.00;98601.84;5058308;28;67142;-79
2023/03/10 04:38:55;;;;;;;;;3.00;1.33;;;;;12.52;100.00;98609.78;5073615;28;59115;-80
2023/03/10 04:41:21;;;;;;;;;0.33;0.00;;;;;12.51;100.00;98623.91;5058501;28;65082;-78
2023/03/10 04:43:46;;;;;;;;;2.00;0.00;;;;;12.54;100.00;98615.88;5064620;28;64697;-78
2023/03/10 04:46:11;;;;;;;;;0.00;0.00;;;;;12.55;100.00;98615.81;5065597;27;58768;-79
2023/03/10 04:48:37;;;;;;;;;1.00;0.00;;;;;12.56;100.00;98612.25;5057722;28;64378;-78
2023/03/10 04:51:05;;;;;;;;;1.67;0.00;;;;;12.54;100.00;98610.59;5058809;28;46264;-78
2023/03/10 04:53:32;;;;;;;;;4.33;0.00;;;;;12.54;100.00;98622.03;5076885;28;45416;-78
2023/03/10 04:55:58;;;;;;;;;2.33;0.00;;;;;12.49;100.00;98631.91;5057965;28;45393;-77
2023/03/10 04:58:23;;;;;;;;;1.00;0.00;;;;;12.44;100.00;98631.19;5077078;28;45464;-77
2023/03/10 05:00:49;;;;;;;;;0.00;0.00;;;;;12.36;100.00;98632.34;5066883;28;68095;-78
2023/03/10 05:03:14;;;;;;;;;0.00;0.00;;;;;12.33;100.00;98636.81;5065495;28;67402;-79
2023/03/10 05:05:40;;;;;;;;;0.00;0.00;;;;;12.29;100.00;98635.19;5070569;28;45254;-78
2023/03/10 05:08:06;;;;;;;;;3.00;0.67;;;;;12.26;100.00;98629.13;5068593;27;45463;-78
2023/03/10 05:10:31;;;;;;;;;0.00;0.00;;;;;12.24;100.00;98623.88;5073266;27;46215;-77
2023/03/10 05:12:57;;;;;;;;;1.67;0.00;;;;;12.22;100.00;98628.34;5070718;28;67785;-79
2023/03/10 05:15:22;;;;;;;;;1.00;0.00;;;;;12.19;100.00;98633.72;5074127;28;66916;-77
2023/03/10 05:17:47;;;;;;;;;1.67;0.00;;;;;12.20;100.00;98632.84;5042827;28;55760;-78
2023/03/10 05:20:14;;;;;;;;;0.00;0.00;;;;;12.18;100.00;98633.78;5062014;28;60192;-79
2023/03/10 05:22:40;;;;;;;;;3.00;0.00;;;;;12.13;100.00;98635.72;5075693;27;45482;-77
2023/03/10 05:25:06;;;;;;;;;2.00;0.00;;;;;12.09;100.00;98629.66;5052033;28;45436;-77
2023/03/10 05:27:33;;;;;;;;;1.00;0.00;;;;;12.07;100.00;98645.56;5057823;28;45553;-77
2023/03/10 05:29:58;;;;;;;;;1.00;0.00;;;;;12.07;100.00;98642.06;5058064;28;46533;-77
2023/03/10 05:32:24;;;;;;;;;0.67;0.00;;;;;12.07;100.00;98640.28;5041876;28;46081;-78
2023/03/10 05:34:50;;;;;;;;;1.00;0.00;;;;;12.07;100.00;98647.34;5067348;28;45462;-78
2023/03/10 05:37:15;;;;;;;;;0.00;0.00;;;;;12.05;100.00;98649.19;5075985;27;45605;-77
2023/03/10 05:39:42;;;;;;;;;0.33;0.00;;;;;12.00;100.00;98651.09;5051871;28;46548;-77
2023/03/10 05:42:08;;;;;;;;;0.00;0.00;;;;;11.94;100.00;98646.84;5051345;28;45265;-77
2023/03/10 05:44:34;;;;;;;;;0.00;0.00;;;;;11.92;100.00;98647.78;5058688;27;45462;-77
2023/03/10 05:46:59;;;;;;;;;0.00;0.00;;;;;11.88;100.00;98651.44;5073036;27;45638;-77
2023/03/10 05:49:24;;;;;;;;;0.00;0.00;;;;;11.88;100.00;98654.06;5094636;27;68751;-79
2023/03/10 05:51:50;;;;;;;;;0.00;0.00;;;;;11.86;100.00;98646.19;5087981;27;64571;-78
2023/03/10 05:54:15;;;;;;;;;0.00;0.00;;;;;11.87;100.00;98640.00;5073593;28;45394;-78
2023/03/10 05:56:40;;;;;;;;;0.00;0.00;;;;;11.84;100.00;98649.81;5057997;28;45562;-76
2023/03/10 05:59:06;;;;;;;;;0.00;0.00;;;;;11.82;100.00;98643.69;5057501;27;48057;-78
2023/03/10 06:01:31;;;;;;;;;0.00;0.00;;;;;11.82;100.00;98655.13;5074882;28;60875;-78
2023/03/10 06:03:57;;;;;;;;;0.00;0.00;;;;;11.84;100.00;98640.09;5058008;28;45322;-79
2023/03/10 06:06:22;;;;;;;;;1.00;0.00;;;;;11.86;100.00;98659.41;5050165;28;45594;-78
2023/03/10 06:08:48;;;;;;;;;0.00;0.00;;;;;11.87;100.00;98673.50;5049154;28;73613;-78
2023/03/10 06:11:13;;;;;;;;;0.00;0.00;;;;;11.82;100.00;98662.19;5066373;28;45277;-78
2023/03/10 06:13:38;;;;;;;;;0.00;0.00;;;;;11.79;100.00;98671.06;5046122;28;45466;-77
2023/03/10 06:16:06;;;;;;;;;1.67;0.00;;;;;11.77;100.00;98675.50;5063701;27;56983;-78
2023/03/10 06:18:32;;;;;;;;;0.00;0.00;;;;;11.74;100.00;98670.31;5061799;28;46511;-79
2023/03/10 06:20:57;;;;;;;;;0.00;0.00;;;;;11.68;100.00;98676.66;5063612;28;45951;-77
2023/03/10 06:23:24;;;;;;;;;0.00;0.00;;;;;11.66;100.00;98672.31;5057312;28;45386;-76
2023/03/10 06:25:57;;;;;;;;;1.00;0.00;;;;;11.66;100.00;98685.50;5051504;28;45635;-77
2023/03/10 06:28:23;;;;;;;;;0.00;0.00;;;;;11.64;100.00;98685.56;5047563;28;46486;-78
2023/03/10 06:30:56;;;;;;;;;2.00;0.00;;;;;11.59;100.00;98698.03;5067984;27;45500;-77
2023/03/10 06:33:22;;;;;;;;;0.00;0.00;;;;;11.51;100.00;98700.91;5067440;28;45577;-80
2023/03/10 06:35:48;;;;;;;;;0.00;0.00;;;;;11.49;100.00;98717.69;5074720;28;45675;-77
2023/03/10 06:38:13;;;;;;;;;1.00;0.00;;;;;11.45;100.00;98709.00;5077711;28;51617;-77
2023/03/10 06:40:38;;;;;;;;;0.00;0.00;;;;;11.41;100.00;98707.34;5073077;27;45267;-78
2023/03/10 06:43:04;;;;;;;;;0.00;0.00;;;;;11.39;100.00;98727.63;5084794;27;61128;-76
2023/03/10 06:45:29;;;;;;;;;0.00;0.00;;;;;11.38;100.00;98715.34;5082539;27;45486;-76
2023/03/10 06:47:55;;;;;;;;;1.00;0.00;;;;;11.42;100.00;98717.00;5077221;27;67053;-78
2023/03/10 06:50:20;;;;;;;;;0.00;0.00;;;;;11.43;100.00;98728.44;5059478;28;45379;-78
2023/03/10 06:52:46;;;;;;;;;0.00;0.00;;;;;11.46;100.00;98733.66;5046467;28;58805;-80
2023/03/10 06:55:12;;;;;;;;;0.00;0.00;;;;;11.48;100.00;98745.03;5078031;27;45849;-78
2023/03/10 06:57:38;;;;;;;;;0.00;0.00;;;;;11.48;100.00;98753.84;5078312;27;45913;-77
2023/03/10 07:00:10;;;;;;;;;0.00;0.00;;;;;11.50;100.00;98746.75;5060655;28;45469;-79
2023/03/10 07:02:35;;;;;;;;;0.00;0.00;;;;;11.47;100.00;98767.97;5082038;27;45335;-78
2023/03/10 07:05:01;;;;;;;;;3.00;0.00;;;;;11.47;100.00;98764.44;5062301;28;45510;-78
2023/03/10 07:07:26;;;;;;;;;0.00;0.00;;;;;11.48;100.00;98755.59;5058779;27;72510;-79
2023/03/10 07:09:51;;;;;;;;;0.00;0.00;;;;;11.48;100.00;98785.53;5076836;28;69406;-76
2023/03/10 07:12:16;;;;;;;;;0.00;0.00;;;;;11.48;100.00;98782.91;5080485;27;45483;-75
2023/03/10 07:14:42;;;;;;;;;0.00;0.00;;;;;11.51;100.00;98800.47;5077556;27;45326;-76
2023/03/10 07:17:07;;;;;;;;;0.00;0.00;;;;;11.52;100.00;98800.44;5073170;28;64614;-78
2023/03/10 07:19:33;;;;;;;;;0.00;0.00;;;;;11.53;100.00;98811.88;5069498;27;45562;-79
2023/03/10 07:21:58;;;;;;;;;0.00;0.00;;;;;11.50;100.00;98817.22;5056760;27;53481;-78
2023/03/10 07:24:23;;;;;;;;;0.00;0.00;;;;;11.51;100.00;98824.25;5074406;27;62104;-79
2023/03/10 07:26:48;;;;;;;;;0.00;0.00;;;;;11.51;100.00;98837.47;5070830;27;69545;-77
2023/03/10 07:29:14;;;;;;;;;0.00;0.00;;;;;11.50;100.00;98830.44;5067786;28;60059;-77
2023/03/10 07:31:39;;;;;;;;;0.00;0.00;;;;;11.49;100.00;98847.19;5076314;28;45331;-79
2023/03/10 07:34:05;;;;;;;;;0.00;0.00;;;;;11.49;100.00;98841.91;5053934;28;58553;-80
2023/03/10 07:36:30;;;;;;;;;1.00;0.00;;;;;11.50;100.00;98856.84;5069784;27;46595;-79
2023/03/10 07:38:56;;;;;;;;;0.67;0.00;;;;;11.52;100.00;98858.56;5051698;28;47233;-78
2023/03/10 07:41:21;;;;;;;;;0.00;0.00;;;;;11.55;100.00;98855.84;5033622;28;45343;-78
2023/03/10 07:43:50;;;;;;;;;0.00;0.00;;;;;11.55;100.00;98882.25;5056704;28;45385;-78
2023/03/10 07:46:16;;;;;;;;;1.00;0.00;;;;;11.59;100.00;98893.66;5064222;27;45977;-77
2023/03/10 07:48:41;;;;;;;;;0.00;0.00;;;;;11.64;100.00;98907.63;5037216;28;47856;-79
2023/03/10 07:51:07;;;;;;;;;0.00;0.00;;;;;11.67;100.00;98909.34;5043529;28;45407;-79
2023/03/10 07:53:32;;;;;;;;;0.00;0.00;;;;;11.69;100.00;98924.25;5069079;28;45519;-78
2023/03/10 07:55:58;;;;;;;;;1.00;0.00;;;;;11.72;100.00;98925.97;5056214;28;46408;-77
2023/03/10 07:58:24;;;;;;;;;0.00;0.00;;;;;11.73;100.00;98940.91;5056597;28;45512;-79
2023/03/10 08:00:54;;;;;;;;;0.00;0.00;;;;;11.73;100.00;98964.69;5049196;27;45565;-78
2023/03/10 08:03:20;;;;;;;;;0.00;0.00;;;;;11.73;100.00;98962.94;5051976;28;45542;-84
2023/03/10 08:05:46;;;;;;;;;0.00;0.00;;;;;11.73;100.00;98959.41;5067990;27;45685;-78
2023/03/10 08:08:11;;;;;;;;;0.00;0.00;;;;;11.73;100.00;98992.00;5060610;28;46651;-82
2023/03/10 08:10:37;;;;;;;;;0.00;0.00;;;;;11.74;100.00;98959.38;5052588;28;46062;-80
2023/03/10 08:13:02;;;;;;;;;0.00;0.00;;;;;11.71;100.00;98992.94;5052836;28;45539;-80
2023/03/10 08:15:28;;;;;;;;;0.00;0.00;;;;;11.72;100.00;99022.00;5068561;28;45667;-81
2023/03/10 08:17:54;;;;;;;;;0.00;0.00;;;;;11.73;100.00;99020.22;5049120;28;45628;-77
2023/03/10 08:20:19;;;;;;;;;0.00;0.00;;;;;11.70;100.00;99013.22;5068830;27;45518;-77
2023/03/10 08:22:44;;;;;;;;;1.00;0.00;;;;;11.73;100.00;99033.44;5061110;27;46726;-79
2023/03/10 08:25:11;;;;;;;;;0.00;0.00;;;;;11.71;100.00;99051.97;5068233;27;67309;-79
2023/03/10 08:27:37;;;;;;;;;0.00;0.00;;;;;11.71;100.00;99045.81;5062916;28;45504;-79
2023/03/10 08:30:03;;;;;;;;;0.00;0.00;;;;;11.70;100.00;99068.75;5059620;28;45639;-77
2023/03/10 08:32:28;;;;;;;;;0.00;0.00;;;;;11.69;100.00;99080.22;5071834;27;45608;-77
2023/03/10 08:34:53;;;;;;;;;0.00;0.00;;;;;11.72;100.00;99077.53;5068545;27;70170;-79
2023/03/10 08:37:19;;;;;;;;;1.00;0.00;;;;;11.72;100.00;99084.59;5069339;27;70600;-76
2023/03/10 08:39:45;;;;;;;;;0.00;0.00;;;;;11.73;100.00;99094.25;5050470;28;45612;-77
2023/03/10 08:42:11;;;;;;;;;0.00;0.00;;;;;11.71;100.00;99103.97;5069131;28;45503;-79
2023/03/10 08:44:37;;;;;;;;;0.00;0.00;;;;;11.70;100.00;99102.25;5068713;28;46215;-80
2023/03/10 08:47:03;;;;;;;;;0.00;0.00;;;;;11.70;100.00;99126.03;5063077;27;45537;-77
2023/03/10 08:49:28;;;;;;;;;0.00;0.00;;;;;11.69;100.00;99132.22;5067930;28;45601;-78
2023/03/10 08:51:54;;;;;;;;;0.00;0.00;;;;;11.64;100.00;99113.81;5058169;28;59097;-79
2023/03/10 08:54:20;;;;;;;;;0.00;0.00;;;;;11.65;100.00;99120.84;5067278;28;70287;-78
2023/03/10 08:56:46;;;;;;;;;0.00;0.00;;;;;11.65;100.00;99125.25;5071019;27;45557;-78
2023/03/10 08:59:11;;;;;;;;;1.00;0.00;;;;;11.66;100.00;99142.84;5056420;28;45466;-81
2023/03/10 09:01:37;;;;;;;;;0.00;0.00;;;;;11.65;100.00;99130.53;5072793;28;58649;-84
2023/03/10 09:04:04;;;;;;;;;0.67;0.00;;;;;11.61;100.00;99134.16;5066747;28;48700;-78
2023/03/10 09:06:30;;;;;;;;;0.00;0.00;;;;;11.59;100.00;99143.91;5052894;28;45492;-77
2023/03/10 09:08:55;;;;;;;;;0.00;0.00;;;;;11.54;100.00;99160.72;5071797;28;54898;-78
2023/03/10 09:11:27;;;;;;;;;0.00;0.00;;;;;11.51;100.00;99170.50;5062837;28;45292;-79
2023/03/10 09:13:52;;;;;;;;;0.00;0.00;;;;;11.44;100.00;99164.44;5068052;27;46311;-78
2023/03/10 09:16:18;;;;;;;;;0.00;0.00;;;;;11.47;100.00;99188.16;5067016;28;47138;-77
2023/03/10 09:18:43;;;;;;;;;0.00;0.00;;;;;11.49;100.00;99207.50;5067345;28;45561;-78
2023/03/10 09:21:11;;;;;;;;;2.00;0.00;;;;;11.45;100.00;99200.56;5065881;28;63466;-80
2023/03/10 09:23:38;;;;;;;;;0.00;0.00;;;;;11.44;100.00;99216.41;5071789;27;45783;-77
2023/03/10 09:26:03;;;;;;;;;0.00;0.00;;;;;11.38;100.00;99230.63;5067806;22;45519;-78
2023/03/10 09:28:29;;;;;;;;;0.00;0.00;;;;;11.32;100.00;99243.06;5066789;22;45456;-80
2023/03/10 09:30:54;;;;;;;;;0.00;0.00;;;;;11.30;100.00;99250.16;5035801;28;45706;-82
2023/03/10 09:33:21;;;;;;;;;0.00;0.00;;;;;11.32;100.00;99269.50;5080751;22;46898;-78
2023/03/10 09:35:47;;;;;;;;;0.00;0.00;;;;;11.30;100.00;99281.88;5074081;27;46461;-81
2023/03/10 09:38:12;;;;;;;;;1.00;0.00;;;;;11.22;100.00;99268.78;5083392;22;45234;-79
2023/03/10 09:40:41;;;;;;;;;0.00;0.00;;;;;11.20;100.00;99283.78;5069885;27;58536;-77
2023/03/10 09:43:14;;;;;;;;;0.00;0.00;;;;;11.13;100.00;99279.47;5069842;28;47706;-81
2023/03/10 09:45:48;;;;;;;;;0.00;0.00;;;;;11.12;100.00;99312.09;5069686;27;45499;-78
2023/03/10 09:48:55;;;;;;;;;0.00;0.00;;;;;11.10;100.00;99305.97;5070810;28;45287;-78
2023/03/10 09:51:22;;;;;;;;;0.00;0.00;;;;;11.08;100.00;99326.22;5083938;27;46679;-77
2023/03/10 09:54:02;;;;;;;;;1.33;0.33;;;;;11.05;100.00;99319.25;5068475;27;45543;-77
2023/03/10 09:56:31;;;;;;;;;0.00;0.00;;;;;11.07;100.00;99324.50;5073761;27;46426;-79
2023/03/10 09:59:09;;;;;;;;;1.00;0.00;;;;;11.05;100.00;99337.72;5075999;27;45548;-80
2023/03/10 10:01:36;;;;;;;;;0.00;0.00;;;;;11.05;100.00;99340.38;5066832;28;45580;-80
2023/03/10 10:04:06;;;;;;;;;2.00;0.00;;;;;11.02;100.00;99377.38;5069149;28;46166;-81
2023/03/10 10:06:36;;;;;;;;;1.67;0.00;;;;;10.98;100.00;99368.66;5066137;28;45485;-83
2023/03/10 10:09:24;;;;;;;;;2.00;1.00;;;;;10.92;100.00;99402.16;5071485;27;46482;-80
2023/03/10 10:11:49;;;;;;;;;1.00;0.00;;;;;10.91;100.00;99385.44;5067360;27;45830;-80
2023/03/10 10:14:18;;;;;;;;;2.00;0.00;;;;;10.92;100.00;99412.72;5065866;27;72809;-79
2023/03/10 10:16:52;;;;;;;;;2.33;0.00;;;;;10.92;100.00;99424.19;5072860;27;45405;-81
2023/03/10 10:19:23;;;;;;;;;1.67;0.00;;;;;10.91;100.00;99425.06;5069999;27;45364;-78
2023/03/10 10:22:01;;;;;;;;;2.00;0.00;;;;;10.93;100.00;99418.00;5073065;28;45528;-82
2023/03/10 10:24:27;;;;;;;;;0.00;0.00;;;;;10.98;100.00;99437.31;5074648;28;46648;-79
2023/03/10 10:26:52;;;;;;;;;2.00;1.00;;;;;11.02;100.00;99456.63;5070771;27;46107;-78
2023/03/10 10:29:21;;;;;;;;;0.00;0.00;;;;;11.01;100.00;99445.19;5070717;27;63079;-79
2023/03/10 10:32:03;;;;;;;;;3.00;0.00;;;;;11.05;100.00;99440.75;5074841;27;45446;-79
2023/03/10 10:34:30;;;;;;;;;3.00;0.33;;;;;11.05;100.00;99471.56;5069923;28;46630;-78
2023/03/10 10:36:56;;;;;;;;;2.67;0.00;;;;;11.10;100.00;99454.75;5070300;27;45458;-78
2023/03/10 10:39:27;;;;;;;;;0.00;0.00;;;;;11.12;100.00;99454.72;5074082;27;45448;-79
2023/03/10 10:41:53;;;;;;;;;1.00;0.00;;;;;11.23;100.00;99450.19;5074963;27;45326;-79
2023/03/10 10:44:18;;;;;;;;;0.00;0.00;;;;;11.39;100.00;99487.81;5071891;27;61524;-80
2023/03/10 10:46:55;;;;;;;;;0.00;0.00;;;;;11.50;100.00;99473.59;5077326;27;62608;-79
2023/03/10 10:49:26;;;;;;;;;1.00;0.00;;;;;11.52;100.00;99484.13;5078776;27;46031;-79
2023/03/10 10:51:58;;;;;;;;;0.67;0.00;;;;;11.53;100.00;99486.75;5078565;27;45304;-78
2023/03/10 10:54:27;;;;;;;;;0.00;0.00;;;;;11.43;100.00;99503.63;5076846;27;46043;-79
2023/03/10 10:57:00;;;;;;;;;1.00;1.00;;;;;11.39;100.00;99487.81;5076996;27;45488;-78
2023/03/10 10:59:34;;;;;;;;;0.00;0.00;;;;;11.38;100.00;99508.09;5078031;27;45358;-79
2023/03/10 11:02:20;;;;;;;;;2.00;0.67;;;;;11.39;100.00;99533.63;5078253;27;45561;-81
2023/03/10 11:04:46;;;;;;;;;1.00;0.00;;;;;11.48;100.00;99520.31;5067356;28;47818;-79
2023/03/10 11:07:18;;;;;;;;;0.67;0.00;;;;;11.50;100.00;99538.78;5077759;27;54582;-80
2023/03/10 11:09:43;;;;;;;;;0.00;0.00;;;;;11.65;100.00;99532.41;5073309;28;45492;-79
2023/03/10 11:12:20;;;;;;;;;2.33;0.67;;;;;11.76;100.00;99520.78;5072671;28;57649;-79
2023/03/10 11:15:08;;;;;;;;;0.33;0.00;;;;;11.82;100.00;99563.94;5074348;27;47124;-80
2023/03/10 11:17:56;;;;;;;;;0.00;0.00;;;;;11.80;100.00;99553.34;5073729;27;45385;-78
2023/03/10 11:20:29;;;;;;;;;0.00;0.00;;;;;11.86;100.00;99568.28;5071050;27;45286;-80
2023/03/10 11:23:03;;;;;;;;;2.00;0.00;;;;;11.92;100.00;99553.19;5077884;27;45334;-78